Time;durP1;ratioP1;P1;durP2;ratioP2;P2;SDS_P1;SDS_P2;PMS_P1;PMS_P2;Temp;Humidity;BMP_temperature;BMP_pressure;BME280_temperature;BME280_humidity;BME280_pressure;Samples;Min_cycle;Max_cycle;Signal;HPM_P1;HPM_P2
2023/09/02 00:01:49;;;;;;;14.73;13.43;;;13.60;77.30;;;;;;6194652;28;20240;-82
2023/09/02 00:04:52;;;;;;;14.40;13.20;;;13.60;77.40;;;;;;6205514;28;20251;-82
2023/09/02 00:07:56;;;;;;;16.00;14.40;;;13.60;77.50;;;;;;6212629;28;20306;-83
2023/09/02 00:10:59;;;;;;;16.67;15.07;;;13.50;77.60;;;;;;6214007;28;20318;-81
2023/09/02 00:14:02;;;;;;;16.13;14.63;;;13.50;77.60;;;;;;6212667;28;20235;-81
2023/09/02 00:17:07;;;;;;;17.13;15.27;;;13.50;77.70;;;;;;6201806;28;20263;-82
2023/09/02 00:20:12;;;;;;;16.63;15.10;;;13.50;77.80;;;;;;6184116;28;20235;-84
2023/09/02 00:23:15;;;;;;;18.07;16.50;;;13.50;77.90;;;;;;6209003;28;20235;-81
2023/09/02 00:26:18;;;;;;;18.17;16.47;;;13.40;78.00;;;;;;6211913;28;20832;-82
2023/09/02 00:29:21;;;;;;;18.70;17.00;;;13.40;78.10;;;;;;6204879;28;20244;-83
2023/09/02 00:32:28;;;;;;;18.00;16.37;;;13.40;78.10;;;;;;6196092;28;20377;-84
2023/09/02 00:35:32;;;;;;;18.37;16.60;;;13.30;78.20;;;;;;6207232;28;20249;-84
2023/09/02 00:38:35;;;;;;;18.77;16.90;;;13.30;78.30;;;;;;6200048;28;20367;-83
2023/09/02 00:41:46;;;;;;;18.57;16.87;;;13.30;78.40;;;;;;6202271;28;20264;-83
2023/09/02 00:44:50;;;;;;;18.83;17.07;;;13.30;78.50;;;;;;6198326;28;20239;-84
2023/09/02 00:47:56;;;;;;;18.53;16.63;;;13.30;78.60;;;;;;6212287;28;20246;-80
2023/09/02 00:51:00;;;;;;;19.13;17.37;;;13.30;78.70;;;;;;6204360;28;20723;-83
2023/09/02 00:54:03;;;;;;;18.80;17.10;;;13.30;78.70;;;;;;6197192;28;20320;-82
2023/09/02 00:57:07;;;;;;;17.80;16.20;;;13.30;78.80;;;;;;6210803;28;20868;-83
2023/09/02 01:00:13;;;;;;;20.10;18.10;;;13.20;78.90;;;;;;6188273;28;20318;-84
2023/09/02 01:03:18;;;;;;;19.30;17.50;;;13.20;78.90;;;;;;6196114;28;20310;-84
2023/09/02 01:06:22;;;;;;;18.40;16.67;;;13.20;79.00;;;;;;6204322;28;20236;-81
2023/09/02 01:09:26;;;;;;;19.50;17.53;;;13.10;79.00;;;;;;6205195;28;20254;-83
2023/09/02 01:12:29;;;;;;;18.83;17.13;;;13.10;79.00;;;;;;6204208;28;20231;-83
2023/09/02 01:15:33;;;;;;;18.93;17.17;;;13.10;79.10;;;;;;6196523;28;20252;-81
2023/09/02 01:18:38;;;;;;;19.00;17.30;;;13.10;79.10;;;;;;6207612;28;20813;-85
2023/09/02 01:22:04;;;;;;;18.73;16.93;;;13.10;79.20;;;;;;6201695;28;20235;-83
2023/09/02 01:25:17;;;;;;;20.77;18.80;;;13.10;79.30;;;;;;6209264;28;20303;-82
2023/09/02 01:28:28;;;;;;;20.40;18.43;;;13.10;79.40;;;;;;6202640;28;20246;-83
2023/09/02 01:31:33;;;;;;;19.07;17.27;;;13.10;79.40;;;;;;6197086;28;20235;-82
2023/09/02 01:34:38;;;;;;;20.47;18.43;;;13.10;79.40;;;;;;6206081;28;20240;-84
2023/09/02 01:37:44;;;;;;;20.23;18.13;;;13.00;79.50;;;;;;6211139;28;20347;-82
2023/09/02 01:40:49;;;;;;;19.63;17.80;;;13.00;79.60;;;;;;6193130;28;20232;-83
2023/09/02 01:43:55;;;;;;;22.10;19.70;;;13.10;79.70;;;;;;6199870;28;20235;-83
2023/09/02 01:47:01;;;;;;;20.90;18.80;;;13.00;79.80;;;;;;6214852;28;20795;-84
2023/09/02 01:50:07;;;;;;;19.60;17.73;;;13.00;79.80;;;;;;6212284;28;20252;-82
2023/09/02 01:53:10;;;;;;;20.60;18.67;;;13.00;79.90;;;;;;6205253;28;20248;-82
2023/09/02 01:56:14;;;;;;;20.37;18.27;;;13.00;80.00;;;;;;6211364;28;20239;-85
2023/09/02 01:59:20;;;;;;;20.57;18.60;;;13.00;80.10;;;;;;6204530;28;20242;-83
2023/09/02 02:02:23;;;;;;;21.33;19.10;;;13.00;80.10;;;;;;6200535;28;20712;-82
2023/09/02 02:05:35;;;;;;;19.43;17.67;;;13.00;80.20;;;;;;6197344;28;20239;-83
2023/09/02 02:08:44;;;;;;;19.40;17.50;;;13.00;80.20;;;;;;6193629;28;20287;-81
2023/09/02 02:11:51;;;;;;;19.77;17.33;;;13.00;80.20;;;;;;6203239;28;20239;-83
2023/09/02 02:14:58;;;;;;;18.70;16.97;;;12.90;80.20;;;;;;6204002;28;20708;-81
2023/09/02 02:18:01;;;;;;;19.10;17.40;;;12.90;80.30;;;;;;6204688;28;20353;-83
2023/09/02 02:21:07;;;;;;;19.90;17.90;;;12.90;80.20;;;;;;6201204;28;20636;-84
2023/09/02 02:24:12;;;;;;;18.53;16.83;;;12.90;80.20;;;;;;6204983;28;20234;-82
2023/09/02 02:27:15;;;;;;;18.93;17.13;;;12.80;80.30;;;;;;6199111;28;20255;-82
2023/09/02 02:30:20;;;;;;;19.20;17.50;;;12.80;80.40;;;;;;6214798;28;20285;-84
2023/09/02 02:33:28;;;;;;;19.30;17.50;;;12.80;80.40;;;;;;6199511;28;20235;-83
2023/09/02 02:36:31;;;;;;;18.17;16.53;;;12.80;80.40;;;;;;6193702;28;20244;-84
2023/09/02 02:39:34;;;;;;;19.57;17.77;;;12.80;80.40;;;;;;6219121;28;20243;-81
2023/09/02 02:42:37;;;;;;;18.50;16.70;;;12.70;80.50;;;;;;6201144;28;20239;-85
2023/09/02 02:45:43;;;;;;;18.03;16.50;;;12.70;80.60;;;;;;6201825;28;20235;-83
2023/09/02 02:48:46;;;;;;;17.77;16.20;;;12.70;80.70;;;;;;6211701;28;20251;-84
2023/09/02 02:51:50;;;;;;;18.93;17.20;;;12.70;80.70;;;;;;6213598;28;20235;-84
2023/09/02 02:54:53;;;;;;;19.40;17.50;;;12.70;80.70;;;;;;6210640;28;20295;-83
2023/09/02 02:57:57;;;;;;;18.60;16.83;;;12.70;80.80;;;;;;6206947;28;20268;-83
2023/09/02 03:01:05;;;;;;;18.43;16.80;;;12.70;80.80;;;;;;6211681;28;20240;-85
2023/09/02 03:04:09;;;;;;;18.40;16.63;;;12.70;80.80;;;;;;6207138;28;20293;-85
2023/09/02 03:07:12;;;;;;;18.23;16.63;;;12.70;80.80;;;;;;6205135;28;20247;-84
2023/09/02 03:10:15;;;;;;;19.57;17.60;;;12.70;80.80;;;;;;6208913;28;20346;-85
2023/09/02 03:13:18;;;;;;;18.40;16.50;;;12.70;80.80;;;;;;6206455;28;20242;-83
2023/09/02 03:16:23;;;;;;;18.97;17.20;;;12.70;80.90;;;;;;6214113;28;20242;-83
2023/09/02 03:19:26;;;;;;;19.10;17.40;;;12.70;80.90;;;;;;6214185;28;20274;-83
2023/09/02 03:22:30;;;;;;;19.83;18.13;;;12.60;80.90;;;;;;6217684;28;20533;-81
2023/09/02 03:25:34;;;;;;;19.70;18.00;;;12.60;80.90;;;;;;6211322;28;20269;-85
2023/09/02 03:28:37;;;;;;;19.07;17.37;;;12.60;81.00;;;;;;6205203;28;20243;-86
2023/09/02 03:31:42;;;;;;;19.63;17.70;;;12.50;81.00;;;;;;6202150;28;20315;-80
2023/09/02 03:34:45;;;;;;;19.40;17.47;;;12.50;81.00;;;;;;6220099;28;20323;-84
2023/09/02 03:37:48;;;;;;;18.33;16.73;;;12.50;81.00;;;;;;6213995;28;20282;-83
2023/09/02 03:40:51;;;;;;;17.43;15.83;;;12.50;81.10;;;;;;6203989;28;20247;-84
2023/09/02 03:43:55;;;;;;;18.60;16.87;;;12.50;81.00;;;;;;6208575;28;20242;-83
2023/09/02 03:47:00;;;;;;;19.93;18.03;;;12.50;81.00;;;;;;6207167;28;20240;-82
2023/09/02 03:50:04;;;;;;;17.93;16.43;;;12.50;81.10;;;;;;6208327;28;20317;-83
2023/09/02 03:53:07;;;;;;;17.83;16.27;;;12.50;81.10;;;;;;6209939;28;20307;-83
2023/09/02 03:56:10;;;;;;;17.87;16.17;;;12.50;81.10;;;;;;6208604;28;20659;-82
2023/09/02 03:59:13;;;;;;;20.10;18.20;;;12.50;81.10;;;;;;6195110;28;20312;-82
2023/09/02 04:02:18;;;;;;;19.50;17.63;;;12.50;81.20;;;;;;6203081;28;20321;-84
2023/09/02 04:05:21;;;;;;;19.83;18.10;;;12.50;81.20;;;;;;6210604;28;20338;-83
2023/09/02 04:08:26;;;;;;;18.33;16.63;;;12.50;81.30;;;;;;6212120;28;20239;-82
2023/09/02 04:11:29;;;;;;;19.93;17.87;;;12.40;81.40;;;;;;6203946;28;20242;-83
2023/09/02 04:14:32;;;;;;;19.43;17.53;;;12.40;81.40;;;;;;6219020;28;20249;-83
2023/09/02 04:17:36;;;;;;;19.40;17.57;;;12.40;81.40;;;;;;6200300;28;20624;-84
2023/09/02 04:20:40;;;;;;;18.67;16.87;;;12.40;81.40;;;;;;6211846;28;20239;-85
2023/09/02 04:23:44;;;;;;;18.70;16.93;;;12.50;81.50;;;;;;6206147;28;20246;-85
2023/09/02 04:26:47;;;;;;;16.93;15.50;;;12.40;81.50;;;;;;6213659;28;20235;-83
2023/09/02 04:29:51;;;;;;;17.73;16.23;;;12.40;81.50;;;;;;6213655;28;20770;-85
2023/09/02 04:32:58;;;;;;;17.03;15.50;;;12.40;81.50;;;;;;6202794;28;20251;-83
2023/09/02 04:36:02;;;;;;;16.70;15.20;;;12.40;81.60;;;;;;6205625;28;20261;-83
2023/09/02 04:39:06;;;;;;;15.53;14.23;;;12.40;81.60;;;;;;6196772;28;20998;-84
2023/09/02 04:42:10;;;;;;;15.80;14.40;;;12.40;81.60;;;;;;6209760;28;20246;-83
2023/09/02 04:45:13;;;;;;;15.90;14.60;;;12.40;81.70;;;;;;6216143;28;20646;-82
2023/09/02 04:48:18;;;;;;;15.37;14.03;;;12.50;81.80;;;;;;6204878;28;20238;-82
2023/09/02 04:51:21;;;;;;;15.43;13.97;;;12.50;81.80;;;;;;6215542;28;20345;-84
2023/09/02 04:54:25;;;;;;;16.10;14.70;;;12.50;81.90;;;;;;6212904;28;20231;-83
2023/09/02 04:57:28;;;;;;;13.60;12.57;;;12.50;82.00;;;;;;6204864;28;20389;-84
2023/09/02 05:00:31;;;;;;;15.03;13.77;;;12.50;82.00;;;;;;6211086;28;20235;-85
2023/09/02 05:03:35;;;;;;;16.47;14.83;;;12.50;82.00;;;;;;6213143;28;20242;-84
2023/09/02 05:06:39;;;;;;;13.93;12.83;;;12.50;82.00;;;;;;6208407;28;20306;-83
2023/09/02 05:09:42;;;;;;;18.57;16.80;;;12.60;82.00;;;;;;6219130;28;20239;-83
2023/09/02 05:12:45;;;;;;;13.97;12.77;;;12.60;81.90;;;;;;6207562;28;20235;-83
2023/09/02 05:15:50;;;;;;;13.93;12.73;;;12.70;81.90;;;;;;6206364;28;20338;-79
2023/09/02 05:18:55;;;;;;;14.40;13.10;;;12.70;81.90;;;;;;6201407;28;20227;-81
2023/09/02 05:21:58;;;;;;;13.77;12.60;;;12.80;81.90;;;;;;6217253;28;20254;-83
2023/09/02 05:25:01;;;;;;;14.90;13.40;;;12.80;81.80;;;;;;6203519;28;20229;-79
2023/09/02 05:28:05;;;;;;;14.87;13.60;;;12.90;81.80;;;;;;6201725;28;20236;-82
2023/09/02 05:31:08;;;;;;;14.50;13.20;;;12.90;81.80;;;;;;6210248;28;20251;-78
2023/09/02 05:34:13;;;;;;;14.37;12.97;;;13.00;81.70;;;;;;6209310;28;20237;-80
2023/09/02 05:37:16;;;;;;;12.90;11.90;;;13.10;81.70;;;;;;6197625;28;20279;-80
2023/09/02 05:40:19;;;;;;;14.67;13.47;;;13.10;81.60;;;;;;6207626;28;20267;-79
2023/09/02 05:43:24;;;;;;;13.07;11.97;;;13.30;81.60;;;;;;6217306;28;20316;-79
2023/09/02 05:46:27;;;;;;;13.20;12.20;;;13.30;81.60;;;;;;6213697;28;20242;-79
2023/09/02 05:49:36;;;;;;;13.03;12.03;;;13.50;81.60;;;;;;6211517;28;21004;-79
2023/09/02 05:52:40;;;;;;;13.23;12.00;;;13.50;81.50;;;;;;6207987;28;20250;-80
2023/09/02 05:55:52;;;;;;;13.00;11.90;;;13.60;81.40;;;;;;6198572;28;20245;-78
2023/09/02 05:58:55;;;;;;;13.20;12.03;;;13.70;81.30;;;;;;6199461;28;20366;-78
2023/09/02 06:01:59;;;;;;;12.10;11.10;;;13.90;81.30;;;;;;6225754;28;20239;-77
2023/09/02 06:05:05;;;;;;;11.50;10.57;;;14.00;81.30;;;;;;6211605;28;20726;-79
2023/09/02 06:08:09;;;;;;;13.47;12.27;;;14.10;81.20;;;;;;6203101;28;20248;-76
2023/09/02 06:11:12;;;;;;;13.13;11.83;;;14.40;81.00;;;;;;6204400;28;20246;-77
2023/09/02 06:14:15;;;;;;;13.63;12.20;;;14.60;80.80;;;;;;6213032;28;20833;-77
2023/09/02 06:17:18;;;;;;;14.97;13.50;;;14.80;80.40;;;;;;6216853;28;20321;-79
2023/09/02 06:20:24;;;;;;;14.67;13.17;;;15.40;81.00;;;;;;6209470;28;20242;-79
2023/09/02 06:23:27;;;;;;;12.53;11.43;;;16.40;77.10;;;;;;6211708;28;20681;-79
2023/09/02 06:26:31;;;;;;;10.83;9.83;;;16.60;74.10;;;;;;6205226;28;20244;-78
2023/09/02 06:29:35;;;;;;;10.57;9.27;;;16.70;73.80;;;;;;6212163;28;20239;-79
2023/09/02 06:32:38;;;;;;;9.30;8.50;;;16.90;73.50;;;;;;6202744;28;20878;-79
2023/09/02 06:35:42;;;;;;;8.90;8.17;;;17.00;72.80;;;;;;6206938;28;20240;-79
2023/09/02 06:38:46;;;;;;;7.50;6.80;;;17.20;71.50;;;;;;6211786;28;20326;-78
2023/09/02 06:41:49;;;;;;;7.63;7.00;;;17.20;71.20;;;;;;6200832;28;20499;-79
2023/09/02 06:44:55;;;;;;;7.20;6.70;;;17.20;70.60;;;;;;6204544;28;20235;-78
2023/09/02 06:47:58;;;;;;;8.40;7.80;;;17.20;70.40;;;;;;6221263;28;20313;-78
2023/09/02 06:51:03;;;;;;;6.50;6.10;;;17.10;69.90;;;;;;6209969;28;20231;-79
2023/09/02 06:54:08;;;;;;;8.60;7.73;;;17.10;70.10;;;;;;6213338;28;20310;-79
2023/09/02 06:57:11;;;;;;;8.37;7.73;;;17.20;69.80;;;;;;6204013;28;20245;-80
2023/09/02 07:00:15;;;;;;;8.87;8.27;;;17.10;69.60;;;;;;6213794;28;20279;-79
2023/09/02 07:03:19;;;;;;;10.10;9.27;;;16.90;69.20;;;;;;6210476;28;20316;-78
2023/09/02 07:06:24;;;;;;;9.80;9.07;;;16.70;68.90;;;;;;6196798;28;20778;-75
2023/09/02 07:09:27;;;;;;;7.90;7.23;;;16.60;70.00;;;;;;6207599;28;20701;-78
2023/09/02 07:12:31;;;;;;;10.20;9.27;;;16.60;70.40;;;;;;6212357;28;20236;-78
2023/09/02 07:15:34;;;;;;;10.33;9.33;;;16.80;70.00;;;;;;6202963;28;20271;-76
2023/09/02 07:18:38;;;;;;;9.93;9.20;;;16.80;69.80;;;;;;6215773;28;20247;-80
2023/09/02 07:21:42;;;;;;;10.90;9.83;;;16.90;69.00;;;;;;6210641;28;20235;-80
2023/09/02 07:24:46;;;;;;;10.10;9.37;;;17.00;69.00;;;;;;6242027;28;20230;-79
2023/09/02 07:27:49;;;;;;;10.03;9.10;;;17.10;68.60;;;;;;6243463;28;20219;-80
2023/09/02 07:30:52;;;;;;;9.00;8.10;;;17.20;68.70;;;;;;6229630;28;20260;-79
2023/09/02 07:33:55;;;;;;;7.87;7.17;;;17.20;68.40;;;;;;6204635;28;20247;-79
2023/09/02 07:36:59;;;;;;;7.43;6.93;;;17.30;67.40;;;;;;6206390;28;20737;-77
2023/09/02 07:40:03;;;;;;;8.30;7.57;;;17.40;66.90;;;;;;6206192;28;20366;-80
2023/09/02 07:43:06;;;;;;;8.43;7.73;;;17.50;65.90;;;;;;6215812;28;20727;-79
2023/09/02 07:46:11;;;;;;;6.97;6.33;;;17.50;65.90;;;;;;6208252;28;20897;-79
2023/09/02 07:49:14;;;;;;;6.53;6.13;;;17.50;66.50;;;;;;6210141;28;20236;-78
2023/09/02 07:52:18;;;;;;;7.90;5.93;;;17.60;66.20;;;;;;6213235;28;20249;-77
2023/09/02 07:55:23;;;;;;;6.27;5.70;;;17.80;65.50;;;;;;6214052;28;20308;-76
2023/09/02 07:58:26;;;;;;;5.47;4.70;;;17.60;64.50;;;;;;6213738;28;20639;-75
2023/09/02 08:01:29;;;;;;;6.30;5.80;;;17.80;64.40;;;;;;6217552;28;20430;-77
2023/09/02 08:04:32;;;;;;;6.47;5.87;;;17.80;63.30;;;;;;6212735;28;20239;-78
2023/09/02 08:07:37;;;;;;;6.70;6.20;;;17.90;63.40;;;;;;6206322;28;20255;-79
2023/09/02 08:10:40;;;;;;;7.83;7.03;;;18.00;64.00;;;;;;6212211;28;20798;-80
2023/09/02 08:13:45;;;;;;;7.87;7.10;;;18.10;62.90;;;;;;6209138;28;20761;-78
2023/09/02 08:16:48;;;;;;;6.27;5.87;;;18.20;62.80;;;;;;6204622;28;20326;-79
2023/09/02 08:19:51;;;;;;;6.27;5.77;;;18.20;63.20;;;;;;6208420;28;20239;-79
2023/09/02 08:22:57;;;;;;;6.23;5.73;;;18.40;61.60;;;;;;6212817;28;20242;-79
2023/09/02 08:26:06;;;;;;;8.87;6.93;;;18.40;61.40;;;;;;6201131;28;20805;-77
2023/09/02 08:29:09;;;;;;;6.33;5.87;;;18.40;61.60;;;;;;6233980;28;20228;-77
2023/09/02 08:32:12;;;;;;;5.13;4.80;;;18.40;61.00;;;;;;6208805;28;20243;-79
2023/09/02 08:35:15;;;;;;;4.23;4.03;;;18.50;60.80;;;;;;6204408;28;20381;-78
2023/09/02 08:38:19;;;;;;;5.73;5.43;;;18.70;60.90;;;;;;6207461;28;20291;-79
2023/09/02 08:41:27;;;;;;;4.97;4.67;;;18.80;59.90;;;;;;6216088;28;20243;-78
2023/09/02 08:44:35;;;;;;;6.67;5.13;;;18.80;60.70;;;;;;6226025;28;20266;-78
2023/09/02 08:47:40;;;;;;;4.87;4.57;;;18.90;59.60;;;;;;6201586;28;20259;-79
2023/09/02 08:50:44;;;;;;;5.00;4.67;;;19.00;59.80;;;;;;6210963;28;20562;-77
2023/09/02 08:53:48;;;;;;;5.27;4.87;;;19.20;59.20;;;;;;6211023;28;20863;-77
2023/09/02 08:56:53;;;;;;;5.10;4.50;;;19.20;59.10;;;;;;6217038;28;20794;-78
2023/09/02 08:59:56;;;;;;;5.33;4.37;;;19.40;59.50;;;;;;6218017;28;20323;-77
2023/09/02 09:02:59;;;;;;;4.93;4.57;;;19.60;59.00;;;;;;6223395;28;20243;-78
2023/09/02 09:06:04;;;;;;;4.87;4.47;;;19.70;58.80;;;;;;6206808;28;20318;-76
2023/09/02 09:09:10;;;;;;;4.67;4.37;;;19.90;58.00;;;;;;6206116;28;20259;-76
2023/09/02 09:12:13;;;;;;;4.50;4.20;;;20.00;58.50;;;;;;6207833;28;20234;-77
2023/09/02 09:15:19;;;;;;;3.77;3.57;;;20.00;57.40;;;;;;6211333;28;20243;-76
2023/09/02 09:18:22;;;;;;;5.07;4.60;;;20.30;58.00;;;;;;6211713;28;20302;-75
2023/09/02 09:21:25;;;;;;;4.77;4.37;;;20.30;57.80;;;;;;6208499;28;20239;-77
2023/09/02 09:24:30;;;;;;;4.33;4.13;;;20.20;56.50;;;;;;6205477;28;20389;-78
2023/09/02 09:27:34;;;;;;;4.43;4.13;;;20.30;57.50;;;;;;6209295;28;20246;-77
2023/09/02 09:30:37;;;;;;;5.97;4.20;;;20.50;56.70;;;;;;6204041;28;20345;-77
2023/09/02 09:33:50;;;;;;;4.03;3.67;;;20.60;57.00;;;;;;6204737;28;20227;-79
2023/09/02 09:36:58;;;;;;;5.00;4.60;;;20.50;56.20;;;;;;6205334;28;20885;-78
2023/09/02 09:40:02;;;;;;;4.20;3.90;;;20.50;57.10;;;;;;6197874;28;20374;-79
2023/09/02 09:43:15;;;;;;;3.77;3.50;;;20.60;57.70;;;;;;6205816;28;20781;-78
2023/09/02 09:46:19;;;;;;;4.43;4.03;;;20.80;56.70;;;;;;6203686;28;20281;-78
2023/09/02 09:49:23;;;;;;;3.87;3.57;;;20.50;56.90;;;;;;6205180;28;20239;-76
2023/09/02 09:52:29;;;;;;;4.07;3.70;;;20.50;57.50;;;;;;6214199;28;20249;-78
2023/09/02 09:55:34;;;;;;;3.60;3.30;;;20.70;56.90;;;;;;6217162;28;20637;-81
2023/09/02 09:58:37;;;;;;;4.63;4.33;;;21.00;58.20;;;;;;6205091;28;20250;-77
2023/09/02 10:01:48;;;;;;;4.60;4.30;;;21.10;56.80;;;;;;6212150;28;20733;-78
2023/09/02 10:04:59;;;;;;;4.63;4.23;;;21.00;57.70;;;;;;6187025;28;20239;-78
2023/09/02 10:08:04;;;;;;;4.10;3.90;;;20.60;58.20;;;;;;6214439;28;20251;-77
2023/09/02 10:11:21;;;;;;;5.67;4.73;;;21.00;58.70;;;;;;6194659;28;20291;-78
2023/09/02 10:14:24;;;;;;;4.00;3.80;;;21.10;56.50;;;;;;6208178;28;20232;-77
2023/09/02 10:17:28;;;;;;;4.43;4.17;;;21.30;57.10;;;;;;6209222;28;20317;-79
2023/09/02 10:20:33;;;;;;;5.00;4.53;;;21.40;57.10;;;;;;6212057;28;20337;-78
2023/09/02 10:23:37;;;;;;;4.43;4.20;;;21.10;57.20;;;;;;6200516;28;20288;-75
2023/09/02 10:26:48;;;;;;;3.80;3.47;;;21.10;57.60;;;;;;6212085;28;20258;-76
2023/09/02 10:29:55;;;;;;;5.70;4.60;;;21.00;57.90;;;;;;6194194;28;20247;-76
2023/09/02 10:33:10;;;;;;;4.63;4.23;;;21.10;57.70;;;;;;6201166;28;20251;-76
2023/09/02 10:36:18;;;;;;;4.67;4.37;;;21.00;57.80;;;;;;6193700;28;20323;-78
2023/09/02 10:39:29;;;;;;;4.23;3.93;;;21.00;58.20;;;;;;6203398;28;20390;-76
2023/09/02 10:42:35;;;;;;;5.53;4.27;;;20.90;58.60;;;;;;6216295;28;20235;-76
2023/09/02 10:45:39;;;;;;;4.27;3.87;;;20.70;58.20;;;;;;6210799;28;20373;-75
2023/09/02 10:48:46;;;;;;;4.97;4.27;;;20.60;58.50;;;;;;6214105;28;20262;-76
2023/09/02 10:51:50;;;;;;;4.20;4.10;;;20.50;58.70;;;;;;6199967;28;20240;-77
2023/09/02 10:55:04;;;;;;;4.33;3.93;;;20.50;58.70;;;;;;6207429;28;20239;-77
2023/09/02 10:58:08;;;;;;;4.07;3.87;;;20.30;59.50;;;;;;6217428;28;20243;-76
2023/09/02 11:01:12;;;;;;;4.77;4.20;;;20.20;59.40;;;;;;6210371;28;20643;-78
2023/09/02 11:04:17;;;;;;;4.07;3.77;;;20.20;59.80;;;;;;6215753;28;20746;-77
2023/09/02 11:07:26;;;;;;;5.07;4.60;;;20.30;59.70;;;;;;6219011;28;20312;-77
2023/09/02 11:10:51;;;;;;;3.77;3.43;;;20.50;59.40;;;;;;6202553;28;20231;-75
2023/09/02 11:14:23;;;;;;;3.60;3.40;;;20.80;58.90;;;;;;6215024;28;20342;-77
2023/09/02 11:17:28;;;;;;;5.67;4.30;;;21.10;59.20;;;;;;6216231;28;20600;-77
2023/09/02 11:20:49;;;;;;;4.50;4.10;;;21.10;58.40;;;;;;6201582;28;20243;-80
2023/09/02 11:23:52;;;;;;;3.60;3.37;;;21.10;57.80;;;;;;6201743;28;20247;-78
2023/09/02 11:26:57;;;;;;;3.87;3.67;;;20.90;57.30;;;;;;6207134;28;20369;-76
2023/09/02 11:30:12;;;;;;;4.03;3.87;;;20.90;58.30;;;;;;6214479;28;20534;-78
2023/09/02 11:33:19;;;;;;;4.30;3.90;;;20.90;58.40;;;;;;6206600;28;20306;-76
2023/09/02 11:36:25;;;;;;;3.73;3.53;;;21.10;57.50;;;;;;6213384;28;20447;-78
2023/09/02 11:39:29;;;;;;;3.67;3.37;;;21.50;56.80;;;;;;6208872;28;20324;-78
2023/09/02 11:42:32;;;;;;;3.03;2.80;;;22.00;55.80;;;;;;6204814;28;20860;-80
2023/09/02 11:45:40;;;;;;;3.90;3.70;;;22.00;55.50;;;;;;6203096;28;20289;-79
2023/09/02 11:48:43;;;;;;;4.43;4.03;;;22.20;54.60;;;;;;6189210;28;20310;-80
2023/09/02 11:51:47;;;;;;;3.73;3.57;;;22.20;54.70;;;;;;6190362;28;20591;-79
2023/09/02 11:54:50;;;;;;;4.13;3.73;;;22.60;55.40;;;;;;6186507;28;20254;-80
2023/09/02 11:57:54;;;;;;;3.53;3.43;;;22.90;53.70;;;;;;6185562;28;20330;-78
2023/09/02 12:00:58;;;;;;;4.30;4.00;;;23.40;52.00;;;;;;6184476;28;20236;-79
2023/09/02 12:04:02;;;;;;;3.70;3.57;;;23.20;51.80;;;;;;6186566;28;20873;-77
2023/09/02 12:07:07;;;;;;;4.13;3.67;;;22.80;53.00;;;;;;6182195;28;20500;-79
2023/09/02 12:10:12;;;;;;;4.40;4.10;;;23.30;53.20;;;;;;6185895;28;20679;-78
2023/09/02 12:13:16;;;;;;;3.40;3.30;;;23.60;53.10;;;;;;6195425;28;20231;-79
2023/09/02 12:16:22;;;;;;;4.03;3.70;;;23.50;53.20;;;;;;6227885;28;20271;-79
2023/09/02 12:19:26;;;;;;;4.30;4.00;;;23.50;52.30;;;;;;6212953;28;20802;-78
2023/09/02 12:22:29;;;;;;;4.00;3.70;;;23.40;52.70;;;;;;6212773;28;20727;-77
2023/09/02 12:25:35;;;;;;;3.53;3.40;;;23.30;53.60;;;;;;6209992;28;20250;-77
2023/09/02 12:28:38;;;;;;;3.43;3.13;;;23.60;53.70;;;;;;6219551;28;20636;-77
2023/09/02 12:31:44;;;;;;;3.53;3.23;;;23.00;52.90;;;;;;6197973;28;20239;-77
2023/09/02 12:34:47;;;;;;;3.70;3.50;;;22.30;53.90;;;;;;6196182;28;20243;-79
2023/09/02 12:38:01;;;;;;;3.87;3.67;;;21.70;55.40;;;;;;6184615;28;20747;-78
2023/09/02 12:41:05;;;;;;;3.53;3.30;;;21.60;56.20;;;;;;6209951;28;20247;-78
2023/09/02 12:44:12;;;;;;;4.37;3.40;;;21.50;56.30;;;;;;6195417;28;20230;-79
2023/09/02 12:47:20;;;;;;;3.07;2.97;;;21.50;56.50;;;;;;6202176;28;20333;-80
2023/09/02 12:50:24;;;;;;;3.37;3.20;;;21.40;57.00;;;;;;6206416;28;20248;-80
2023/09/02 12:53:28;;;;;;;3.87;3.50;;;21.40;56.70;;;;;;6199042;28;20834;-80
2023/09/02 12:56:32;;;;;;;4.27;3.97;;;21.30;57.20;;;;;;6204093;28;20243;-80
2023/09/02 12:59:35;;;;;;;3.97;3.77;;;21.20;57.70;;;;;;6207828;28;20730;-79
2023/09/02 13:02:39;;;;;;;3.90;3.67;;;21.10;57.60;;;;;;6205482;28;20254;-80
2023/09/02 13:05:42;;;;;;;4.33;3.73;;;21.00;58.10;;;;;;6204557;28;20533;-79
2023/09/02 13:08:46;;;;;;;4.07;3.80;;;20.90;58.40;;;;;;6205750;28;20243;-80
2023/09/02 13:11:49;;;;;;;3.47;3.27;;;20.90;58.30;;;;;;6203801;28;20233;-79
2023/09/02 13:14:52;;;;;;;4.47;4.17;;;20.80;58.50;;;;;;6206085;28;20786;-79
2023/09/02 13:17:57;;;;;;;4.73;3.50;;;20.80;58.90;;;;;;6203120;28;20242;-77
2023/09/02 13:21:01;;;;;;;3.93;3.63;;;20.70;59.20;;;;;;6200983;28;20235;-79
2023/09/02 13:24:04;;;;;;;4.20;3.90;;;20.70;59.00;;;;;;6200595;28;20232;-80
2023/09/02 13:27:09;;;;;;;5.10;4.37;;;20.70;59.30;;;;;;6201558;28;20224;-81
2023/09/02 13:30:13;;;;;;;3.83;3.67;;;20.70;59.20;;;;;;6201448;28;20259;-79
2023/09/02 13:33:21;;;;;;;3.93;3.77;;;20.70;59.30;;;;;;6208987;28;20248;-76
2023/09/02 13:36:26;;;;;;;3.97;3.67;;;20.80;59.60;;;;;;6203826;28;20239;-78
2023/09/02 13:39:29;;;;;;;4.73;4.53;;;20.90;59.60;;;;;;6203661;28;20231;-79
2023/09/02 13:42:33;;;;;;;4.37;3.97;;;20.80;59.10;;;;;;6211861;28;20301;-80
2023/09/02 13:45:37;;;;;;;3.90;3.60;;;20.90;59.30;;;;;;6210570;28;20247;-78
2023/09/02 13:48:42;;;;;;;4.67;4.40;;;21.00;59.50;;;;;;6210372;28;20239;-79
2023/09/02 13:51:46;;;;;;;4.10;3.90;;;21.00;58.80;;;;;;6204164;28;20252;-79
2023/09/02 13:54:50;;;;;;;4.07;3.80;;;21.10;58.90;;;;;;6195838;28;20251;-78
2023/09/02 13:57:59;;;;;;;3.87;3.70;;;21.20;58.60;;;;;;6212113;28;20619;-80
2023/09/02 14:01:04;;;;;;;4.43;4.13;;;21.20;59.00;;;;;;6200325;28;20871;-78
2023/09/02 14:04:09;;;;;;;5.33;3.80;;;21.10;58.60;;;;;;6204488;28;20234;-80
2023/09/02 14:07:13;;;;;;;4.47;4.10;;;21.10;59.00;;;;;;6210889;28;20235;-79
2023/09/02 14:10:19;;;;;;;4.27;4.00;;;21.00;59.10;;;;;;6204738;28;20254;-79
2023/09/02 14:13:22;;;;;;;3.97;3.77;;;20.90;58.70;;;;;;6211413;28;20237;-78
2023/09/02 14:16:26;;;;;;;4.13;3.83;;;20.60;59.90;;;;;;6206941;28;20247;-80
2023/09/02 14:19:30;;;;;;;4.70;4.40;;;20.60;59.40;;;;;;6216978;28;20247;-79
2023/09/02 14:22:33;;;;;;;6.80;4.23;;;20.70;60.00;;;;;;6220079;28;20261;-78
2023/09/02 14:25:37;;;;;;;4.90;4.50;;;20.90;59.10;;;;;;6212667;28;20243;-79
2023/09/02 14:28:41;;;;;;;4.37;4.07;;;21.00;59.10;;;;;;6197432;28;20247;-78
2023/09/02 14:31:44;;;;;;;4.60;4.40;;;20.80;59.60;;;;;;6212169;28;20320;-76
2023/09/02 14:34:49;;;;;;;5.13;4.53;;;20.90;59.60;;;;;;6203309;28;20318;-76
2023/09/02 14:37:52;;;;;;;4.53;4.23;;;21.00;59.30;;;;;;6196164;28;20235;-77
2023/09/02 14:40:55;;;;;;;4.43;4.00;;;20.80;59.40;;;;;;6213593;28;20239;-76
2023/09/02 14:43:59;;;;;;;4.23;4.03;;;20.80;59.80;;;;;;6209235;28;20236;-75
2023/09/02 14:47:04;;;;;;;4.30;4.10;;;20.80;60.00;;;;;;6222778;28;20718;-74
2023/09/02 14:50:09;;;;;;;6.33;4.33;;;20.80;60.20;;;;;;6216057;28;20239;-74
2023/09/02 14:53:13;;;;;;;5.70;5.20;;;20.80;60.20;;;;;;6210923;28;20246;-76
2023/09/02 14:56:16;;;;;;;5.40;5.10;;;20.70;60.70;;;;;;6203404;28;20235;-74
2023/09/02 14:59:22;;;;;;;4.77;4.30;;;20.60;61.30;;;;;;6207981;28;20326;-75
2023/09/02 15:02:38;;;;;;;5.33;4.93;;;20.70;61.70;;;;;;6213215;28;20259;-75
2023/09/02 15:05:43;;;;;;;4.63;4.33;;;20.80;60.30;;;;;;6204565;28;20246;-75
2023/09/02 15:08:46;;;;;;;5.17;4.87;;;20.90;60.90;;;;;;6220040;28;20676;-75
2023/09/02 15:11:49;;;;;;;3.97;3.87;;;20.90;60.20;;;;;;6208990;28;20330;-74
2023/09/02 15:14:52;;;;;;;5.37;5.07;;;20.90;60.80;;;;;;6206544;28;20278;-78
2023/09/02 15:17:58;;;;;;;5.03;4.63;;;21.00;60.30;;;;;;6221553;28;20258;-77
2023/09/02 15:21:03;;;;;;;5.40;4.90;;;21.00;60.10;;;;;;6209213;28;20237;-75
2023/09/02 15:24:08;;;;;;;5.20;4.80;;;20.90;60.60;;;;;;6200804;28;20614;-75
2023/09/02 15:27:12;;;;;;;4.90;4.60;;;21.00;60.70;;;;;;6203667;28;20239;-75
2023/09/02 15:30:16;;;;;;;4.50;4.17;;;21.00;60.20;;;;;;6213327;28;20740;-77
2023/09/02 15:33:20;;;;;;;5.37;5.07;;;21.10;60.20;;;;;;6206329;28;20337;-76
2023/09/02 15:36:27;;;;;;;4.73;4.53;;;21.30;59.80;;;;;;6205061;28;20305;-77
2023/09/02 15:39:31;;;;;;;5.30;5.00;;;21.40;60.30;;;;;;6209386;28;20309;-75
2023/09/02 15:42:35;;;;;;;5.87;5.47;;;21.40;60.00;;;;;;6204806;28;20247;-74
2023/09/02 15:45:39;;;;;;;7.27;6.67;;;21.20;59.80;;;;;;6210358;28;20266;-73
2023/09/02 15:48:43;;;;;;;5.20;4.90;;;21.00;60.50;;;;;;6213218;28;20230;-74
2023/09/02 15:51:47;;;;;;;5.07;4.77;;;21.00;60.50;;;;;;6203961;28;20239;-78